Peshawar Weather



Peshawar's Current Weather

Temprature 27o haze

haze

Rain: 0 %

Min Temprature27o
Max Temprature27o
Humidity78
Wind Speed2.1 m/h
Sun Rise05:40:40
Sun Set18:52:40
Current Time: 23-Aug-2019 05:10:40
Lat/Lon: 34.01, 71.58




Peshawar's Geo Location



Peshawar's Weather Forecast

Time Overall Temp Min Temp Max Temp Humidity Wind Speed Rain
23-Aug-2019 (Fri)
08:00:00 clear sky 28.400 28.400 30.117 49 2.04 m/h 0 %
11:00:00 clear sky 32.360 32.360 33.650 39 1.98 m/h 0 %
14:00:00 clear sky 35.970 35.970 36.831 31 1.82 m/h 0 %
17:00:00 clear sky 37.380 37.380 37.811 28 3.61 m/h 0 %
20:00:00 clear sky 34.250 34.250 34.250 39 3.02 m/h 0 %
23:00:00 clear sky 33.042 33.042 33.042 42 1.31 m/h 0 %
24-Aug-2019 (Sat)
02:00:00 clear sky 31.631 31.631 31.631 46 1.95 m/h 0 %
05:00:00 clear sky 30.455 30.455 30.455 50 1.52 m/h 0 %
08:00:00 clear sky 31.427 31.427 31.427 47 2.05 m/h 0 %
11:00:00 clear sky 34.569 34.569 34.569 39 2.14 m/h 0 %
14:00:00 clear sky 37.869 37.869 37.869 29 2.15 m/h 0 %
17:00:00 clear sky 38.823 38.823 38.823 26 3.68 m/h 0 %
20:00:00 clear sky 35.250 35.250 35.250 36 3.19 m/h 0 %
23:00:00 clear sky 33.869 33.869 33.869 41 0.96 m/h 0 %
25-Aug-2019 (Sun)
02:00:00 clear sky 32.331 32.331 32.331 44 1.35 m/h 0 %
05:00:00 few clouds 31.157 31.157 31.157 48 1.93 m/h 0 %
08:00:00 few clouds 31.514 31.514 31.514 46 2.31 m/h 0 %
11:00:00 clear sky 35.116 35.116 35.116 36 2.04 m/h 0 %
14:00:00 clear sky 38.550 38.550 38.550 27 2.25 m/h 0 %
17:00:00 clear sky 39.850 39.850 39.850 23 3.13 m/h 0 %
20:00:00 clear sky 35.481 35.481 35.481 36 3.75 m/h 0 %
23:00:00 clear sky 34.211 34.211 34.211 40 1.62 m/h 0 %
26-Aug-2019 (Mon)
02:00:00 clear sky 32.565 32.565 32.565 43 1.95 m/h 0 %
05:00:00 light rain 28.350 28.350 28.350 59 3.86 m/h 156 %
08:00:00 light rain 28.767 28.767 28.767 63 2.7 m/h 63 %
11:00:00 clear sky 33.072 33.072 33.072 49 2.32 m/h 0 %
14:00:00 clear sky 37.284 37.284 37.284 35 1.58 m/h 0 %
17:00:00 clear sky 38.020 38.020 38.020 33 3.86 m/h 0 %
20:00:00 scattered clouds 33.772 33.772 33.772 47 1.77 m/h 0 %
23:00:00 few clouds 33.514 33.514 33.514 47 0.69 m/h 0 %
27-Aug-2019 (Tue)
02:00:00 clear sky 32.416 32.416 32.416 50 1.83 m/h 0 %
05:00:00 light rain 29.150 29.150 29.150 61 1.37 m/h 231 %
08:00:00 light rain 30.435 30.435 30.435 56 0.27 m/h 156 %
11:00:00 light rain 34.736 34.736 34.736 42 1.95 m/h 6 %
14:00:00 clear sky 38.036 38.036 38.036 33 2.71 m/h 0 %
17:00:00 clear sky 38.265 38.265 38.265 33 4.77 m/h 0 %
20:00:00 clear sky 35.150 35.150 35.150 43 2.67 m/h 0 %
23:00:00 clear sky 33.850 33.850 33.850 46 1.84 m/h 0 %
28-Aug-2019 (Wed)
02:00:00 light rain 30.957 30.957 30.957 54 2.57 m/h 156 %
05:00:00 light rain 29.772 29.772 29.772 60 0.65 m/h 300 %

Famous Cities (61)